Sharjah International Airport
OMSJ : now visible

Airfield :











YOU CAN JOIN US ON...

 
LOGIN :

Register | Disclaimer

   EN    FR    IT 

 









Legend :    VFR   Marginal VFR   IFR   Intensive IFR   Very Intensive IFR
Visi :
Ceiling :
>= 8 km
>= 3000ft
5 to 8 km
1000 to 3000 ft
1500m to 5 km
500 to 1000 ft
800 to 1500m
200 to 500 ft
< 800m
< 200 ft
Symbols :   Thunderstorms  Fog  Heavy snow  Heavy precipitations  Wind > 20 kt






- Airport Elevation : 111 ft
- IATA code : SHJ


OMSJ - Sharjah International

CURRENT METAR :
  • 210200Z 18002KT CAVOK 19/10 Q1012 NOSIG

EXPIRED METARs :
  • 210100Z VRB03KT CAVOK 20/10 Q1012 NOSIG
  • 210000Z 11006KT CAVOK 18/11 Q1011 NOSIG

TAF TAF OMSJ
Valid from the 21 at 00:00 until the 22 at 06:00 UTC


202254Z 2100/2206 13004KT 8000 NSC
BECMG 2104/2106 19012KT
BECMG 2109/2111 30010KT
BECMG 2116/2118 08004KT
PROB30 2121/2200 3000 BR
PROB30 2200/2204 1500 BR



MET'MAP, your aeronautical weather chart ! - Copyright ORBIFLY December 2007 - Disclaimer

ORBIFLY MET'MAP TEAM :

Programming & Development : Alexandra Zaïnal
Concept & original design : Baudouin d'Aumeries
Assistance for programming : Marc-Olivier Méhu
Technical & hardware support : Manuel Goepfert

Contact : metmap@orbifly.com




SOURCES & CREDITS :

   NOAA       Earth
Advisory